Time;durP1;ratioP1;P1;durP2;ratioP2;P2;SDS_P1;SDS_P2;PMS_P1;PMS_P2;Temp;Humidity;BMP_temperature;BMP_pressure;BME280_temperature;BME280_humidity;BME280_pressure;Samples;Min_cycle;Max_cycle;Signal;HPM_P1;HPM_P2
2024/04/02 00:01:09;;;;;;;1.20;0.70;;;;;;;11.35;71.68;97567.66;4306453;33;33653;-85
2024/04/02 00:03:37;;;;;;;2.00;0.80;;;;;;;11.25;72.48;97589.44;4296485;33;34764;-85
2024/04/02 00:06:04;;;;;;;1.98;0.80;;;;;;;11.39;72.29;97598.72;4275208;33;34096;-87
2024/04/02 00:08:31;;;;;;;1.02;0.60;;;;;;;11.62;70.95;97600.09;4274761;33;34273;-86
2024/04/02 00:11:02;;;;;;;1.58;0.80;;;;;;;11.42;71.96;97610.78;4288462;33;33435;-87
2024/04/02 00:13:29;;;;;;;1.45;0.70;;;;;;;11.30;73.74;97624.81;4294747;33;33851;-88
2024/04/02 00:15:56;;;;;;;2.47;0.80;;;;;;;10.90;75.56;97632.28;4276146;33;32607;-85
2024/04/02 00:18:24;;;;;;;1.67;0.70;;;;;;;10.81;76.09;97635.84;4289554;33;34687;-88
2024/04/02 00:20:51;;;;;;;1.10;0.70;;;;;;;10.93;76.94;97614.09;4302373;33;34305;-85
2024/04/02 00:23:18;;;;;;;2.00;0.73;;;;;;;10.77;77.72;97591.84;4274365;33;33869;-87
2024/04/02 00:25:46;;;;;;;1.05;0.60;;;;;;;10.86;78.74;97573.56;4300222;33;33938;-88
2024/04/02 00:28:12;;;;;;;0.80;0.60;;;;;;;10.63;79.16;97558.34;4290197;33;33932;-88
2024/04/02 00:30:39;;;;;;;1.60;0.80;;;;;;;10.69;78.62;97538.38;4300479;33;33493;-87
2024/04/02 00:33:06;;;;;;;0.95;0.60;;;;;;;10.36;81.25;97516.37;4282916;33;31904;-88
2024/04/02 00:35:34;;;;;;;2.28;0.90;;;;;;;10.69;78.96;97529.75;4299907;33;34991;-91
2024/04/02 00:38:00;;;;;;;1.92;0.80;;;;;;;10.54;80.54;97530.81;4288689;33;35023;-87
2024/04/02 00:40:27;;;;;;;0.90;0.60;;;;;;;10.51;80.66;97541.22;4301476;33;33581;-85
2024/04/02 00:43:04;;;;;;;2.80;0.90;;;;;;;10.85;79.02;97556.31;4294960;33;35580;-87
2024/04/02 00:45:31;;;;;;;0.60;0.60;;;;;;;10.84;77.66;97577.94;4300053;33;34029;-85
2024/04/02 00:47:57;;;;;;;1.20;0.50;;;;;;;10.45;80.10;97587.91;4288175;33;33889;-85
2024/04/02 00:50:25;;;;;;;1.83;0.80;;;;;;;10.48;79.82;97598.25;4301467;33;33109;-88
2024/04/02 00:52:52;;;;;;;2.42;0.80;;;;;;;10.56;79.32;97616.28;4273962;33;34140;-87
2024/04/02 00:55:18;;;;;;;1.67;0.82;;;;;;;10.32;80.83;97630.41;4290691;33;34797;-87
2024/04/02 00:57:45;;;;;;;2.05;0.85;;;;;;;10.45;80.25;97639.75;4287864;33;33525;-85
2024/04/02 01:00:13;;;;;;;1.67;1.00;;;;;;;10.52;78.97;97633.63;4283497;33;33544;-90
2024/04/02 01:02:39;;;;;;;2.85;1.10;;;;;;;10.36;79.96;97640.69;4290542;33;32466;-86
2024/04/02 01:05:06;;;;;;;2.85;1.20;;;;;;;10.71;79.04;97616.97;4288773;33;34685;-88
2024/04/02 01:07:32;;;;;;;3.42;1.40;;;;;;;10.52;80.01;97602.50;4275070;33;33785;-84
2024/04/02 01:09:59;;;;;;;3.72;1.50;;;;;;;10.09;81.43;97584.84;4300362;33;36146;-86
2024/04/02 01:12:26;;;;;;;3.42;1.80;;;;;;;10.33;81.07;97588.06;4287290;33;33211;-87
2024/04/02 01:14:52;;;;;;;3.30;1.80;;;;;;;10.19;83.16;97596.84;4275911;33;32764;-86
2024/04/02 01:17:19;;;;;;;3.75;1.83;;;;;;;10.13;82.76;97596.03;4273882;33;32863;-86
2024/04/02 01:19:46;;;;;;;4.10;1.60;;;;;;;9.98;84.28;97578.94;4281700;33;33286;-86
2024/04/02 01:22:13;;;;;;;2.70;1.55;;;;;;;9.86;83.97;97571.28;4294739;33;34246;-88
2024/04/02 01:24:40;;;;;;;2.80;1.62;;;;;;;9.72;84.42;97574.00;4298116;33;34304;-84
2024/04/02 01:27:07;;;;;;;3.92;1.60;;;;;;;9.79;83.89;97603.28;4287170;33;34747;-84
2024/04/02 01:29:33;;;;;;;2.08;1.20;;;;;;;9.84;83.85;97604.09;4286200;33;33975;-88
2024/04/02 01:32:00;;;;;;;2.15;1.17;;;;;;;10.10;82.88;97573.62;4291372;33;33551;-88
2024/04/02 01:34:26;;;;;;;3.17;1.02;;;;;;;9.96;82.72;97596.19;4300771;33;35035;-87
2024/04/02 01:36:53;;;;;;;2.83;1.17;;;;;;;9.69;83.85;97587.81;4288096;33;34613;-85
2024/04/02 01:39:21;;;;;;;2.60;1.02;;;;;;;10.05;81.81;97562.47;4276357;33;32643;-85
2024/04/02 01:41:47;;;;;;;2.72;1.10;;;;;;;10.00;82.02;97559.06;4292768;33;33604;-88
2024/04/02 01:44:14;;;;;;;1.50;1.00;;;;;;;9.89;81.83;97542.81;4291238;33;34185;-88
2024/04/02 01:46:41;;;;;;;2.03;0.95;;;;;;;9.67;84.05;97560.25;4291521;33;33856;-87
2024/04/02 01:49:07;;;;;;;2.70;1.30;;;;;;;9.91;82.67;97585.03;4287179;33;32735;-88
2024/04/02 01:51:34;;;;;;;1.90;1.20;;;;;;;9.58;83.33;97588.78;4287519;33;33302;-86
2024/04/02 01:54:01;;;;;;;1.42;0.90;;;;;;;10.03;82.20;97574.56;4298517;33;34957;-87
2024/04/02 01:56:27;;;;;;;1.50;0.85;;;;;;;10.06;82.00;97615.94;4287081;33;34788;-85
2024/04/02 01:58:54;;;;;;;2.12;1.00;;;;;;;9.83;82.44;97623.94;4287032;33;33261;-86
2024/04/02 02:01:21;;;;;;;4.05;1.10;;;;;;;10.30;80.25;97629.53;4280686;33;33510;-91
2024/04/02 02:03:48;;;;;;;4.05;1.17;;;;;;;10.32;79.64;97643.34;4277030;33;34828;-85
2024/04/02 02:06:14;;;;;;;1.45;0.90;;;;;;;10.11;80.51;97655.59;4298484;33;33682;-86
2024/04/02 02:08:41;;;;;;;3.30;1.10;;;;;;;9.84;81.79;97650.69;4301356;33;32465;-85
2024/04/02 02:11:07;;;;;;;2.33;0.80;;;;;;;10.57;78.48;97631.84;4300811;33;34042;-86
2024/04/02 02:13:38;;;;;;;2.28;0.80;;;;;;;10.50;79.00;97627.59;4294015;33;33974;-87
2024/04/02 02:16:05;;;;;;;1.40;0.70;;;;;;;10.48;79.27;97603.44;4286843;33;33989;-86
2024/04/02 02:18:32;;;;;;;0.93;0.70;;;;;;;10.70;76.93;97604.88;4287227;33;31993;-87
2024/04/02 02:20:59;;;;;;;2.15;1.17;;;;;;;10.12;79.20;97625.41;4261996;33;33275;-87
2024/04/02 02:23:26;;;;;;;2.83;1.00;;;;;;;10.39;78.09;97598.38;4274327;33;34104;-85
2024/04/02 02:25:53;;;;;;;1.85;1.10;;;;;;;10.56;77.53;97606.78;4300739;33;34032;-86
2024/04/02 02:28:19;;;;;;;1.48;0.90;;;;;;;9.99;80.26;97622.91;4286864;33;32735;-86
2024/04/02 02:30:46;;;;;;;2.30;1.30;;;;;;;9.90;81.44;97643.72;4300854;33;33286;-85
2024/04/02 02:33:13;;;;;;;2.17;1.30;;;;;;;10.19;80.34;97648.63;4300439;33;33713;-85
2024/04/02 02:35:39;;;;;;;2.15;1.30;;;;;;;10.56;78.75;97662.94;4302154;33;33542;-85
2024/04/02 02:38:06;;;;;;;2.12;1.40;;;;;;;10.43;79.14;97693.31;4301445;33;33281;-86
2024/04/02 02:40:32;;;;;;;2.40;1.45;;;;;;;10.91;77.22;97707.47;4301770;33;34138;-91
2024/04/02 02:43:00;;;;;;;2.30;1.45;;;;;;;10.12;79.67;97713.44;4287722;33;33504;-84
2024/04/02 02:45:26;;;;;;;2.40;1.30;;;;;;;10.17;79.32;97706.47;4301562;33;34802;-83
2024/04/02 02:47:53;;;;;;;3.25;1.42;;;;;;;9.70;82.33;97718.94;4302178;33;33162;-87
2024/04/02 02:50:19;;;;;;;2.10;1.30;;;;;;;9.93;81.05;97733.44;4289187;33;33172;-85
2024/04/02 02:52:46;;;;;;;3.33;1.40;;;;;;;10.30;79.50;97722.78;4302974;33;34945;-87
2024/04/02 02:55:13;;;;;;;1.87;1.05;;;;;;;10.13;80.49;97725.50;4299687;33;34059;-87
2024/04/02 02:57:39;;;;;;;2.40;1.20;;;;;;;10.23;78.89;97728.00;4288297;33;33080;-91
2024/04/02 03:00:07;;;;;;;4.55;1.35;;;;;;;9.94;79.87;97735.16;4301362;33;34533;-87
2024/04/02 03:02:34;;;;;;;2.12;1.00;;;;;;;9.77;80.91;97731.81;4283155;33;34926;-89
2024/04/02 03:05:03;;;;;;;2.72;0.80;;;;;;;9.94;80.30;97738.59;4298532;33;33830;-91
2024/04/02 03:07:29;;;;;;;2.70;1.00;;;;;;;9.82;79.82;97736.13;4288484;33;33574;-86
2024/04/02 03:09:57;;;;;;;2.17;0.90;;;;;;;9.86;80.78;97732.63;4300400;33;33650;-86
2024/04/02 03:12:23;;;;;;;2.08;1.00;;;;;;;9.60;80.87;97714.69;4278639;33;34101;-86
2024/04/02 03:14:50;;;;;;;2.30;0.85;;;;;;;10.13;78.87;97715.16;4276710;33;33909;-87
2024/04/02 03:17:16;;;;;;;4.05;0.90;;;;;;;10.08;78.71;97717.78;4302117;33;34450;-86
2024/04/02 03:19:43;;;;;;;2.70;1.00;;;;;;;9.62;81.25;97733.66;4302563;33;33257;-89
2024/04/02 03:22:09;;;;;;;1.70;0.70;;;;;;;10.21;77.88;97739.25;4297554;33;34942;-89
2024/04/02 03:24:36;;;;;;;3.78;0.80;;;;;;;9.64;80.21;97726.75;4278222;33;34623;-86
2024/04/02 03:27:05;;;;;;;3.00;0.70;;;;;;;9.80;80.28;97730.06;4292620;33;33308;-87
2024/04/02 03:29:32;;;;;;;3.45;0.90;;;;;;;9.79;80.38;97733.53;4297629;33;33749;-84
2024/04/02 03:31:58;;;;;;;2.70;1.10;;;;;;;10.06;79.68;97732.47;4282560;33;33866;-88
2024/04/02 03:34:27;;;;;;;3.65;1.10;;;;;;;10.29;78.98;97746.97;4300073;33;34764;-88
2024/04/02 03:36:54;;;;;;;3.03;1.20;;;;;;;10.54;77.43;97750.22;4296540;33;33521;-86
2024/04/02 03:39:23;;;;;;;3.08;1.12;;;;;;;10.00;80.46;97758.44;4301361;33;36477;-87
2024/04/02 03:41:49;;;;;;;2.60;1.30;;;;;;;10.32;78.81;97767.69;4301134;33;34310;-87
2024/04/02 03:44:16;;;;;;;4.65;1.75;;;;;;;10.36;79.19;97764.19;4279356;33;34482;-87
2024/04/02 03:46:43;;;;;;;6.03;2.10;;;;;;;9.92;81.36;97765.38;4294376;33;34354;-89
2024/04/02 03:49:10;;;;;;;5.07;2.47;;;;;;;10.20;79.85;97769.47;4282570;33;34586;-88
2024/04/02 03:51:36;;;;;;;4.82;2.20;;;;;;;10.03;81.11;97771.31;4276369;33;33985;-87
2024/04/02 03:54:03;;;;;;;3.80;2.10;;;;;;;9.87;81.71;97769.72;4301486;33;34743;-88
2024/04/02 03:56:29;;;;;;;4.03;1.90;;;;;;;10.48;78.92;97771.84;4299878;33;33725;-87
2024/04/02 03:58:56;;;;;;;3.85;2.37;;;;;;;9.93;80.93;97775.72;4302025;33;34663;-88
2024/04/02 04:01:23;;;;;;;2.85;1.73;;;;;;;9.75;81.23;97771.53;4288174;33;34666;-88
2024/04/02 04:03:50;;;;;;;5.78;2.35;;;;;;;9.71;80.52;97780.19;4290233;33;34099;-88
2024/04/02 04:06:17;;;;;;;4.55;2.03;;;;;;;10.33;78.04;97782.34;4301664;33;34372;-89
2024/04/02 04:08:43;;;;;;;5.25;2.62;;;;;;;9.79;81.10;97793.06;4294671;33;34063;-88
2024/04/02 04:11:10;;;;;;;4.70;2.60;;;;;;;9.85;81.64;97789.56;4301339;33;35230;-87
2024/04/02 04:13:37;;;;;;;4.18;2.28;;;;;;;10.01;80.02;97780.00;4290108;33;33769;-86
2024/04/02 04:16:04;;;;;;;4.45;2.70;;;;;;;9.57;82.47;97792.31;4285423;33;33540;-86
2024/04/02 04:18:31;;;;;;;4.87;2.67;;;;;;;10.15;80.11;97791.97;4301439;33;34623;-86
2024/04/02 04:20:59;;;;;;;4.07;2.62;;;;;;;9.90;81.43;97798.19;4295540;33;32760;-88
2024/04/02 04:23:26;;;;;;;4.97;2.60;;;;;;;9.67;82.30;97796.59;4282651;33;34297;-87
2024/04/02 04:25:58;;;;;;;5.45;2.70;;;;;;;9.82;81.42;97792.19;4287064;33;33009;-89
2024/04/02 04:28:25;;;;;;;3.12;1.90;;;;;;;10.39;79.26;97796.13;4302169;33;33899;-86
2024/04/02 04:30:59;;;;;;;4.65;1.90;;;;;;;9.87;79.97;97793.88;4290857;33;34840;-85
2024/04/02 04:33:28;;;;;;;4.97;1.73;;;;;;;9.77;81.00;97799.97;4279578;33;34658;-85
2024/04/02 04:35:55;;;;;;;3.97;1.62;;;;;;;10.03;79.88;97801.53;4296584;33;34147;-88
2024/04/02 04:38:24;;;;;;;3.12;1.60;;;;;;;9.92;79.78;97804.19;4297490;33;34094;-85
2024/04/02 04:40:51;;;;;;;2.87;1.60;;;;;;;9.89;80.21;97805.09;4276278;33;34932;-85
2024/04/02 04:43:18;;;;;;;3.97;1.70;;;;;;;10.11;78.78;97805.78;4301214;33;34695;-87
2024/04/02 04:45:54;;;;;;;2.40;1.40;;;;;;;9.74;80.52;97810.38;4292724;33;33525;-86
2024/04/02 04:48:21;;;;;;;3.42;1.62;;;;;;;9.83;80.73;97809.44;4272032;33;33437;-85
2024/04/02 04:51:01;;;;;;;2.97;1.77;;;;;;;9.83;80.70;97830.16;4274467;33;34657;-88
2024/04/02 04:53:29;;;;;;;2.92;1.70;;;;;;;9.78;80.84;97831.91;4289111;33;33913;-86
2024/04/02 04:56:03;;;;;;;3.78;1.48;;;;;;;9.59;81.36;97836.31;4288410;33;33401;-90
2024/04/02 04:58:30;;;;;;;4.47;1.50;;;;;;;9.43;82.66;97848.44;4275192;33;33740;-89
2024/04/02 05:00:57;;;;;;;8.13;1.80;;;;;;;9.50;82.03;97842.38;4289074;33;34990;-87
2024/04/02 05:03:24;;;;;;;3.62;1.48;;;;;;;9.61;82.49;97865.63;4295517;33;33654;-85
2024/04/02 05:06:02;;;;;;;2.53;1.37;;;;;;;9.81;81.02;97868.09;4296193;33;34354;-88
2024/04/02 05:08:28;;;;;;;2.95;1.50;;;;;;;9.38;82.09;97870.88;4281956;33;33764;-87
2024/04/02 05:10:55;;;;;;;3.45;1.75;;;;;;;9.82;80.76;97869.84;4288085;33;34862;-88
2024/04/02 05:13:22;;;;;;;2.92;1.20;;;;;;;9.50;82.00;97878.59;4289111;33;33988;-89
2024/04/02 05:15:48;;;;;;;5.05;1.50;;;;;;;9.74;79.88;97880.25;4282942;33;34233;-88
2024/04/02 05:18:16;;;;;;;2.28;1.27;;;;;;;10.11;78.52;97891.25;4287846;33;33820;-88
2024/04/02 05:20:43;;;;;;;4.05;1.87;;;;;;;9.99;78.80;97896.50;4300076;33;34981;-87
2024/04/02 05:23:11;;;;;;;5.20;1.70;;;;;;;10.06;79.00;97905.09;4299992;33;34038;-88
2024/04/02 05:25:37;;;;;;;3.80;1.40;;;;;;;9.55;80.04;97897.56;4296093;33;33549;-86
2024/04/02 05:28:04;;;;;;;6.20;1.73;;;;;;;9.43;81.40;97920.87;4298964;33;33917;-87
2024/04/02 05:30:31;;;;;;;3.42;1.42;;;;;;;9.22;82.43;97920.06;4296347;33;34537;-87
2024/04/02 05:32:58;;;;;;;2.87;1.25;;;;;;;9.49;81.11;97926.91;4295278;33;36749;-89
2024/04/02 05:35:26;;;;;;;4.68;1.30;;;;;;;9.05;83.24;97929.56;4296733;33;34116;-92
2024/04/02 05:37:53;;;;;;;4.32;1.60;;;;;;;9.13;81.68;97953.72;4300550;33;34045;-89
2024/04/02 05:40:21;;;;;;;2.50;1.10;;;;;;;9.11;82.97;97955.41;4281253;33;33971;-88
2024/04/02 05:42:48;;;;;;;2.35;1.20;;;;;;;9.19;82.45;97970.91;4294494;33;34751;-91
2024/04/02 05:45:16;;;;;;;3.20;1.50;;;;;;;9.18;81.82;97975.25;4266137;33;32879;-89
2024/04/02 05:47:43;;;;;;;2.85;1.10;;;;;;;9.27;81.32;97982.97;4287205;33;34870;-89
2024/04/02 05:50:11;;;;;;;2.80;0.95;;;;;;;9.41;79.71;97982.09;4297769;33;35077;-86
2024/04/02 05:52:37;;;;;;;3.08;1.10;;;;;;;9.48;80.16;97984.69;4298101;33;33380;-92
2024/04/02 05:55:04;;;;;;;2.25;1.02;;;;;;;9.52;78.96;97998.47;4279756;33;33371;-94
2024/04/02 05:57:31;;;;;;;4.50;1.35;;;;;;;9.25;79.44;97997.66;4286906;33;33439;-87
2024/04/02 05:59:57;;;;;;;2.95;0.93;;;;;;;9.58;79.43;98011.37;4287762;33;34302;-87
2024/04/02 06:02:24;;;;;;;4.28;0.90;;;;;;;9.80;77.72;98021.69;4302267;33;34037;-88
2024/04/02 06:04:51;;;;;;;2.22;0.95;;;;;;;9.87;77.61;98019.09;4294588;33;33089;-90
2024/04/02 06:07:18;;;;;;;3.75;0.90;;;;;;;9.50;79.49;98028.66;4292115;33;33756;-86
2024/04/02 06:09:44;;;;;;;2.58;1.30;;;;;;;9.69;79.31;98035.50;4286096;33;34149;-89
2024/04/02 06:12:11;;;;;;;2.83;1.23;;;;;;;9.57;80.65;98043.31;4299667;33;34128;-87
2024/04/02 06:14:38;;;;;;;3.10;1.20;;;;;;;9.64;80.39;98039.84;4290673;33;31985;-89
2024/04/02 06:17:04;;;;;;;3.28;1.00;;;;;;;9.84;79.65;98033.75;4262673;33;33171;-88
2024/04/02 06:19:32;;;;;;;1.83;0.98;;;;;;;9.64;80.63;98039.84;4297312;33;34168;-89
2024/04/02 06:21:59;;;;;;;1.25;0.75;;;;;;;10.09;78.79;98031.97;4292948;33;34431;-87
2024/04/02 06:24:26;;;;;;;1.67;0.95;;;;;;;9.96;79.38;98026.84;4296552;33;34315;-86
2024/04/02 06:26:53;;;;;;;5.75;1.00;;;;;;;10.37;77.67;98031.00;4275016;33;34012;-88
2024/04/02 06:29:19;;;;;;;2.03;0.70;;;;;;;10.61;76.67;98034.37;4298468;33;33963;-87
2024/04/02 06:31:46;;;;;;;3.60;0.90;;;;;;;10.46;76.13;98043.09;4279835;33;33833;-89
2024/04/02 06:34:12;;;;;;;1.75;0.80;;;;;;;10.73;75.44;98038.62;4283040;33;34391;-87
2024/04/02 06:36:40;;;;;;;1.30;0.80;;;;;;;11.09;74.13;98042.69;4299474;33;33938;-86
2024/04/02 06:39:07;;;;;;;2.05;0.73;;;;;;;10.49;75.83;98043.03;4286832;33;33952;-87
2024/04/02 06:41:34;;;;;;;1.55;0.70;;;;;;;10.36;75.99;98049.16;4284315;33;34004;-87
2024/04/02 06:44:01;;;;;;;1.87;0.82;;;;;;;10.16;75.94;98054.41;4286813;33;32963;-87
2024/04/02 06:46:29;;;;;;;2.90;0.90;;;;;;;10.49;75.07;98045.62;4285746;33;33932;-87
2024/04/02 06:48:59;;;;;;;2.45;0.70;;;;;;;10.64;74.75;98058.50;4310955;33;34278;-87
2024/04/02 06:51:25;;;;;;;1.65;0.70;;;;;;;10.85;74.40;98069.66;4275852;33;34659;-91
2024/04/02 06:53:53;;;;;;;2.03;0.88;;;;;;;10.68;74.42;98068.03;4287506;33;33247;-87
2024/04/02 06:56:19;;;;;;;2.33;0.70;;;;;;;10.70;73.89;98078.38;4285378;33;33454;-90
2024/04/02 06:58:46;;;;;;;1.25;0.68;;;;;;;10.33;75.02;98075.94;4289948;33;34246;-86
2024/04/02 07:01:13;;;;;;;1.77;0.77;;;;;;;10.73;73.60;98085.28;4286537;33;33563;-90
2024/04/02 07:03:40;;;;;;;2.03;0.88;;;;;;;10.71;73.80;98088.72;4291359;33;33385;-85
2024/04/02 07:06:06;;;;;;;1.48;0.88;;;;;;;10.79;72.96;98091.28;4298710;33;33940;-88
2024/04/02 07:08:33;;;;;;;2.92;0.88;;;;;;;10.68;74.10;98101.72;4287837;33;33978;-87
2024/04/02 07:11:05;;;;;;;1.92;0.60;;;;;;;11.04;73.34;98110.16;4284836;33;33860;-87
2024/04/02 07:13:32;;;;;;;1.73;0.82;;;;;;;10.70;73.59;98106.88;4290554;33;34136;-86
2024/04/02 07:16:01;;;;;;;1.73;0.90;;;;;;;11.12;72.36;98110.97;4300610;33;33850;-88
2024/04/02 07:18:34;;;;;;;2.05;0.60;;;;;;;10.86;72.19;98113.72;4285299;33;34772;-88
2024/04/02 07:21:03;;;;;;;1.70;0.60;;;;;;;11.08;71.60;98111.84;4285149;33;32749;-88
2024/04/02 07:23:30;;;;;;;1.92;0.75;;;;;;;11.08;71.79;98111.84;4282634;33;31907;-85
2024/04/02 07:25:56;;;;;;;2.45;0.68;;;;;;;11.01;72.00;98127.47;4284064;33;34590;-87
2024/04/02 07:28:24;;;;;;;1.02;0.60;;;;;;;11.16;72.04;98128.22;4270087;33;33637;-87
2024/04/02 07:30:52;;;;;;;2.47;0.62;;;;;;;11.43;71.07;98136.69;4269767;33;35574;-88
2024/04/02 07:33:18;;;;;;;1.27;0.68;;;;;;;11.17;71.05;98134.28;4271434;33;32877;-88
2024/04/02 07:35:45;;;;;;;1.05;0.60;;;;;;;11.44;69.87;98144.50;4284362;33;33401;-89
2024/04/02 07:38:12;;;;;;;1.50;0.60;;;;;;;11.42;71.69;98151.41;4282416;33;34525;-87
2024/04/02 07:40:39;;;;;;;2.05;0.60;;;;;;;11.77;69.71;98152.03;4286240;33;34974;-87
2024/04/02 07:43:06;;;;;;;2.03;0.95;;;;;;;11.54;69.39;98134.88;4283822;33;34201;-87
2024/04/02 07:45:33;;;;;;;1.95;0.80;;;;;;;11.66;69.31;98155.56;4286942;33;33313;-89
2024/04/02 07:48:00;;;;;;;4.35;0.90;;;;;;;11.61;69.19;98157.34;4282256;33;34066;-88
2024/04/02 07:50:30;;;;;;;2.28;0.80;;;;;;;11.78;69.04;98166.72;4289802;33;33804;-88
2024/04/02 07:52:57;;;;;;;1.65;0.65;;;;;;;12.02;68.64;98169.16;4288054;33;33520;-89
2024/04/02 07:55:23;;;;;;;1.67;0.70;;;;;;;12.09;68.43;98165.63;4288162;33;33979;-89
2024/04/02 07:57:52;;;;;;;2.50;0.82;;;;;;;12.09;67.60;98178.63;4301560;33;34269;-89
2024/04/02 08:00:18;;;;;;;2.20;0.70;;;;;;;12.39;67.45;98180.06;4317038;33;33726;-89
2024/04/02 08:02:46;;;;;;;1.87;0.80;;;;;;;11.86;67.47;98190.94;4317028;33;33488;-88
2024/04/02 08:05:13;;;;;;;1.23;0.70;;;;;;;11.56;69.42;98198.06;4303615;33;33135;-90
2024/04/02 08:07:49;;;;;;;2.30;0.70;;;;;;;11.51;68.51;98202.37;4316940;33;34863;-83
2024/04/02 08:10:16;;;;;;;1.12;0.60;;;;;;;11.61;66.97;98214.44;4303046;33;33498;-89
2024/04/02 08:12:43;;;;;;;1.45;0.60;;;;;;;11.84;67.70;98208.25;4288503;33;31908;-92
2024/04/02 08:15:09;;;;;;;1.55;0.70;;;;;;;11.87;66.35;98205.66;4296402;33;33212;-88
2024/04/02 08:17:36;;;;;;;2.20;0.60;;;;;;;12.10;65.77;98219.31;4296108;33;33764;-93
2024/04/02 08:20:03;;;;;;;1.27;0.60;;;;;;;12.00;65.46;98220.25;4308143;33;34629;-91
2024/04/02 08:22:30;;;;;;;0.90;0.60;;;;;;;11.79;66.85;98234.25;4299511;33;33134;-88
2024/04/02 08:24:57;;;;;;;1.35;0.60;;;;;;;11.77;67.05;98224.72;4306522;33;34660;-90
2024/04/02 08:27:23;;;;;;;3.28;0.90;;;;;;;12.04;66.93;98232.31;4287444;33;35158;-89
2024/04/02 08:29:50;;;;;;;1.30;0.57;;;;;;;12.07;66.77;98236.66;4297470;33;33956;-89
2024/04/02 08:32:17;;;;;;;2.25;0.60;;;;;;;12.41;64.77;98229.41;4273783;33;32010;-88
2024/04/02 08:34:43;;;;;;;2.65;0.80;;;;;;;12.09;65.68;98238.38;4295846;33;33956;-90
2024/04/02 08:37:10;;;;;;;2.05;0.70;;;;;;;12.30;65.34;98244.25;4281589;33;32523;-89
2024/04/02 08:39:37;;;;;;;2.00;0.70;;;;;;;12.63;65.52;98246.53;4294643;33;33482;-89
2024/04/02 08:42:04;;;;;;;2.50;0.70;;;;;;;12.57;64.25;98251.78;4300866;33;34394;-88
2024/04/02 08:44:31;;;;;;;1.08;0.50;;;;;;;12.45;64.56;98257.09;4301918;33;33945;-89
2024/04/02 08:46:59;;;;;;;2.12;0.70;;;;;;;12.95;62.42;98268.72;4301054;33;34945;-89
2024/04/02 08:49:26;;;;;;;1.33;0.50;;;;;;;12.97;62.68;98272.19;4290088;33;34049;-89
2024/04/02 08:51:53;;;;;;;3.30;0.60;;;;;;;13.16;62.21;98283.25;4305699;33;34424;-87
2024/04/02 08:54:21;;;;;;;1.70;0.60;;;;;;;12.89;62.26;98274.88;4287690;33;35102;-90
2024/04/02 08:56:48;;;;;;;1.80;0.52;;;;;;;13.06;62.27;98282.47;4296335;33;33907;-88
2024/04/02 08:59:14;;;;;;;1.60;0.68;;;;;;;13.51;61.32;98280.22;4301169;33;34822;-89
2024/04/02 09:01:45;;;;;;;3.08;0.80;;;;;;;13.48;61.11;98303.69;4293317;33;33401;-91
2024/04/02 09:04:14;;;;;;;2.67;0.50;;;;;;;13.14;61.14;98287.59;4303569;33;33756;-93
2024/04/02 09:06:42;;;;;;;1.40;0.60;;;;;;;13.49;61.19;98307.19;4306547;33;34257;-89
2024/04/02 09:09:25;;;;;;;1.62;0.60;;;;;;;13.45;60.21;98314.16;4288434;33;33985;-88
2024/04/02 09:11:52;;;;;;;2.72;0.80;;;;;;;13.43;59.89;98313.31;4301426;33;34004;-91
2024/04/02 09:14:19;;;;;;;2.87;0.90;;;;;;;13.65;59.77;98315.66;4272276;33;33138;-89
2024/04/02 09:16:52;;;;;;;2.03;0.80;;;;;;;13.57;59.41;98319.22;4295988;33;34942;-87
2024/04/02 09:19:19;;;;;;;1.60;0.70;;;;;;;13.84;58.40;98327.53;4286249;33;34156;-88
2024/04/02 09:21:45;;;;;;;3.20;0.70;;;;;;;13.85;58.39;98326.66;4304224;33;34193;-86
2024/04/02 09:24:12;;;;;;;2.15;0.70;;;;;;;13.69;59.04;98330.34;4275106;33;34289;-86
2024/04/02 09:26:39;;;;;;;1.75;0.73;;;;;;;14.05;58.20;98334.19;4301211;33;33508;-89
2024/04/02 09:29:06;;;;;;;1.65;0.60;;;;;;;13.70;57.82;98342.47;4301629;33;34352;-86
2024/04/02 09:31:32;;;;;;;2.42;0.80;;;;;;;13.60;58.16;98340.00;4305418;33;33540;-87
2024/04/02 09:34:08;;;;;;;2.47;0.80;;;;;;;13.63;57.82;98357.31;4291450;33;34007;-86
2024/04/02 09:36:47;;;;;;;1.10;0.68;;;;;;;13.72;57.65;98359.81;4298463;33;34253;-87
2024/04/02 09:39:15;;;;;;;1.23;0.60;;;;;;;13.76;57.30;98363.25;4294183;33;34613;-84
2024/04/02 09:41:44;;;;;;;3.28;0.80;;;;;;;13.73;56.95;98374.56;4300266;33;33517;-87
2024/04/02 09:44:19;;;;;;;1.25;0.70;;;;;;;13.85;57.41;98370.94;4300667;33;34764;-86
2024/04/02 09:46:46;;;;;;;2.00;0.70;;;;;;;14.02;57.95;98373.34;4300899;33;34230;-88
2024/04/02 09:49:13;;;;;;;2.08;0.70;;;;;;;14.02;57.11;98366.38;4293573;33;33878;-86
2024/04/02 09:51:40;;;;;;;3.20;0.62;;;;;;;14.21;57.21;98379.16;4291703;33;33603;-87
2024/04/02 09:54:08;;;;;;;2.62;0.90;;;;;;;14.20;56.31;98373.03;4301072;33;33617;-87
2024/04/02 09:56:35;;;;;;;3.72;1.23;;;;;;;14.23;55.92;98380.84;4291050;33;33916;-88
2024/04/02 09:59:02;;;;;;;3.33;0.95;;;;;;;14.64;54.81;98374.16;4287210;33;35174;-87
2024/04/02 10:01:33;;;;;;;3.45;0.70;;;;;;;14.17;55.51;98370.50;4297849;33;33840;-88
2024/04/02 10:04:05;;;;;;;1.33;0.62;;;;;;;14.62;54.02;98365.47;4271449;33;34164;-88
2024/04/02 10:06:34;;;;;;;1.58;0.70;;;;;;;14.91;55.13;98370.22;4295446;33;34038;-88
2024/04/02 10:09:06;;;;;;;3.22;0.77;;;;;;;15.00;53.82;98367.47;4311671;33;34097;-90
2024/04/02 10:11:37;;;;;;;2.08;0.70;;;;;;;15.47;53.20;98372.69;4276638;33;31834;-86
2024/04/02 10:14:12;;;;;;;1.90;0.80;;;;;;;15.09;53.50;98372.50;4306877;33;34842;-91
2024/04/02 10:16:47;;;;;;;3.43;0.90;;;;;;;14.96;52.97;98388.41;4302580;33;34157;-89
2024/04/02 10:19:19;;;;;;;2.75;0.82;;;;;;;15.46;51.92;98369.22;4275121;33;31960;-89
2024/04/02 10:21:47;;;;;;;3.10;0.80;;;;;;;15.71;51.03;98376.56;4303606;33;33495;-90
2024/04/02 10:24:19;;;;;;;2.15;0.70;;;;;;;15.54;50.31;98362.06;4298697;33;34899;-90
2024/04/02 10:26:50;;;;;;;1.45;0.60;;;;;;;15.85;50.48;98371.06;4313773;33;34957;-89
2024/04/02 10:29:31;;;;;;;2.47;0.65;;;;;;;16.23;49.50;98380.69;4286879;33;34055;-89
2024/04/02 10:31:58;;;;;;;2.65;0.68;;;;;;;15.63;49.65;98384.53;4299996;33;32966;-88
2024/04/02 10:34:25;;;;;;;5.90;0.60;;;;;;;16.10;50.38;98376.59;4291954;33;33657;-88
2024/04/02 10:36:52;;;;;;;2.70;0.65;;;;;;;16.43;49.90;98378.47;4290415;33;33923;-89
2024/04/02 10:39:19;;;;;;;1.80;0.60;;;;;;;16.32;49.34;98380.47;4304292;33;34723;-88
2024/04/02 10:41:46;;;;;;;1.23;0.50;;;;;;;15.94;48.67;98376.94;4295748;33;34175;-88
2024/04/02 10:44:17;;;;;;;2.25;0.60;;;;;;;15.99;48.77;98388.19;4299745;33;34511;-87
2024/04/02 10:46:44;;;;;;;2.55;0.90;;;;;;;15.79;50.64;98387.72;4292459;33;33678;-90
2024/04/02 10:49:10;;;;;;;2.17;0.50;;;;;;;15.70;50.64;98399.25;4296684;33;34848;-87
2024/04/02 10:51:37;;;;;;;1.15;0.50;;;;;;;16.03;49.75;98408.13;4295467;33;33031;-88
2024/04/02 10:54:04;;;;;;;2.65;0.60;;;;;;;16.29;48.89;98404.97;4286212;33;34534;-88
2024/04/02 10:56:30;;;;;;;2.55;0.57;;;;;;;15.70;49.87;98407.06;4300493;33;33761;-88
2024/04/02 10:58:58;;;;;;;3.75;0.88;;;;;;;15.54;49.51;98414.31;4275682;33;33771;-87
2024/04/02 11:01:25;;;;;;;2.05;0.62;;;;;;;15.45;49.26;98403.19;4288194;33;34200;-87
2024/04/02 11:03:54;;;;;;;1.65;0.70;;;;;;;15.65;49.17;98408.03;4298967;33;33520;-86
2024/04/02 11:06:21;;;;;;;1.42;0.50;;;;;;;15.63;50.09;98412.41;4302593;33;33805;-87
2024/04/02 11:08:49;;;;;;;3.15;0.62;;;;;;;15.34;51.21;98416.44;4276452;33;33715;-87
2024/04/02 11:11:19;;;;;;;1.23;0.40;;;;;;;15.88;50.07;98418.06;4288013;33;33272;-87
2024/04/02 11:13:47;;;;;;;2.10;0.80;;;;;;;16.32;48.44;98413.63;4299145;33;34074;-87
2024/04/02 11:16:17;;;;;;;2.05;0.60;;;;;;;16.33;47.94;98400.53;4299153;33;34566;-89
2024/04/02 11:18:45;;;;;;;1.70;0.45;;;;;;;16.52;47.78;98412.28;4288233;33;33574;-87
2024/04/02 11:21:16;;;;;;;2.87;0.65;;;;;;;16.94;46.46;98406.06;4299622;33;33037;-87
2024/04/02 11:26:29;;;;;;;;;;;;;;;16.37;46.18;98412.62;4291550;33;34096;-83
2024/04/02 11:29:07;;;;;;;2.25;0.60;;;;;;;16.46;46.40;98420.25;4286809;33;34956;-86
2024/04/02 11:31:34;;;;;;;2.72;0.50;;;;;;;16.20;47.09;98431.28;4297358;33;33583;-87
2024/04/02 11:34:02;;;;;;;2.25;0.50;;;;;;;16.53;45.27;98419.22;4274653;33;33987;-88
2024/04/02 11:36:30;;;;;;;1.58;0.43;;;;;;;16.05;43.76;98422.03;4277590;33;35074;-88
2024/04/02 11:38:56;;;;;;;1.15;0.40;;;;;;;16.51;44.47;98420.16;4302439;33;34134;-87
2024/04/02 11:41:24;;;;;;;3.10;0.40;;;;;;;16.68;43.22;98402.31;4300012;33;33511;-87